Time;durP1;ratioP1;P1;durP2;ratioP2;P2;SDS_P1;SDS_P2;PMS_P1;PMS_P2;Temp;Humidity;BMP_temperature;BMP_pressure;BME280_temperature;BME280_humidity;BME280_pressure;Samples;Min_cycle;Max_cycle;Signal;HPM_P1;HPM_P2
2022/01/05 00:01:10;;;;;;;6.95;1.67;;;3.40;99.90;;;;;;6010031;23;20590;-88
2022/01/05 00:03:36;;;;;;;8.68;1.73;;;3.40;99.90;;;;;;5984238;23;20018;-88
2022/01/05 00:06:05;;;;;;;5.55;1.88;;;3.30;99.90;;;;;;5984863;23;20058;-88
2022/01/05 00:08:30;;;;;;;9.30;2.00;;;3.30;99.90;;;;;;5984276;23;20048;-90
2022/01/05 00:10:56;;;;;;;10.30;2.10;;;3.30;99.90;;;;;;5984703;23;20014;-87
2022/01/05 00:13:22;;;;;;;8.93;2.15;;;3.30;99.90;;;;;;5985018;23;20014;-88
2022/01/05 00:15:51;;;;;;;11.02;2.08;;;3.20;99.90;;;;;;5985393;23;20164;-89
2022/01/05 00:18:17;;;;;;;7.70;1.77;;;3.20;99.90;;;;;;5985478;23;20375;-89
2022/01/05 00:20:43;;;;;;;10.98;2.67;;;3.20;99.90;;;;;;5983532;23;20088;-89
2022/01/05 00:23:11;;;;;;;9.02;1.85;;;3.10;99.90;;;;;;5984187;23;20020;-87
2022/01/05 00:25:37;;;;;;;10.93;2.08;;;3.10;99.90;;;;;;6009335;23;20056;-88
2022/01/05 00:28:03;;;;;;;9.18;2.80;;;3.00;99.90;;;;;;5984419;23;20406;-88
2022/01/05 00:30:29;;;;;;;9.15;1.80;;;3.00;99.90;;;;;;5984314;23;20024;-88
2022/01/05 00:32:54;;;;;;;8.65;1.98;;;3.00;99.90;;;;;;5984795;23;20010;-89
2022/01/05 00:35:20;;;;;;;8.90;1.85;;;3.00;99.90;;;;;;5983873;23;20088;-87
2022/01/05 00:37:46;;;;;;;8.15;1.98;;;3.00;99.90;;;;;;5984428;23;20010;-87
2022/01/05 00:40:11;;;;;;;8.23;1.58;;;3.00;99.90;;;;;;6009276;23;20021;-89
2022/01/05 00:42:37;;;;;;;8.75;1.63;;;3.00;99.90;;;;;;5984660;23;20006;-87
2022/01/05 00:45:04;;;;;;;16.02;2.10;;;2.90;99.90;;;;;;5984934;23;20022;-86
2022/01/05 00:47:29;;;;;;;8.60;1.73;;;2.90;99.90;;;;;;5984593;23;20017;-87
2022/01/05 00:49:55;;;;;;;10.15;2.20;;;2.90;99.90;;;;;;5985041;23;20009;-87
2022/01/05 00:52:21;;;;;;;12.05;1.83;;;2.90;99.90;;;;;;5984420;23;20068;-88
2022/01/05 00:54:47;;;;;;;12.07;1.73;;;2.90;99.90;;;;;;5984304;23;20113;-86
2022/01/05 00:57:12;;;;;;;10.63;1.98;;;2.90;99.90;;;;;;6007713;23;20410;-90
2022/01/05 00:59:38;;;;;;;9.73;1.85;;;2.90;99.90;;;;;;5984453;23;20030;-89
2022/01/05 01:02:04;;;;;;;11.43;2.03;;;3.00;99.90;;;;;;5984327;23;20100;-88
2022/01/05 01:04:30;;;;;;;7.47;1.30;;;2.90;99.90;;;;;;5984126;23;20032;-88
2022/01/05 01:06:56;;;;;;;7.35;1.25;;;2.90;99.90;;;;;;5984443;23;20018;-88
2022/01/05 01:09:22;;;;;;;7.10;2.03;;;2.90;99.90;;;;;;5984417;23;20017;-87
2022/01/05 01:11:47;;;;;;;10.88;2.63;;;2.90;99.90;;;;;;5984144;23;20037;-88
2022/01/05 01:14:14;;;;;;;8.85;1.50;;;2.90;99.90;;;;;;5984340;23;20017;-88
2022/01/05 01:16:40;;;;;;;8.02;1.30;;;2.80;99.90;;;;;;5984389;23;20056;-87
2022/01/05 01:19:06;;;;;;;9.82;1.80;;;2.80;99.90;;;;;;5984473;23;20013;-89
2022/01/05 01:21:32;;;;;;;11.25;1.60;;;2.80;99.90;;;;;;6009227;23;20017;-88
2022/01/05 01:23:58;;;;;;;7.25;1.70;;;2.80;99.90;;;;;;5984745;23;20022;-88
2022/01/05 01:26:26;;;;;;;8.18;1.60;;;2.80;99.90;;;;;;5984027;23;20072;-88
2022/01/05 01:28:51;;;;;;;9.45;2.20;;;2.80;99.90;;;;;;5984416;23;20100;-87
2022/01/05 01:31:18;;;;;;;10.60;2.55;;;2.80;99.90;;;;;;5984998;23;20108;-88
2022/01/05 01:33:44;;;;;;;14.30;2.13;;;2.70;99.90;;;;;;5984934;23;20010;-89
2022/01/05 01:36:09;;;;;;;7.68;1.88;;;2.70;99.90;;;;;;5984809;23;20018;-88
2022/01/05 01:38:35;;;;;;;9.73;1.55;;;2.70;99.90;;;;;;5984446;23;20523;-88
2022/01/05 01:41:01;;;;;;;9.60;1.90;;;2.80;99.90;;;;;;5984502;23;20052;-90
2022/01/05 01:43:27;;;;;;;12.57;2.75;;;2.80;99.90;;;;;;5984884;23;20041;-88
2022/01/05 01:45:52;;;;;;;10.30;2.10;;;2.90;99.90;;;;;;5985605;23;20037;-88
2022/01/05 01:48:18;;;;;;;7.10;1.70;;;2.90;99.90;;;;;;5985893;23;20017;-90
2022/01/05 01:50:43;;;;;;;7.72;1.63;;;2.90;99.90;;;;;;5985178;23;20020;-90
2022/01/05 01:53:09;;;;;;;11.55;2.17;;;2.90;99.90;;;;;;5984562;23;20105;-89
2022/01/05 01:55:35;;;;;;;10.40;2.08;;;2.80;99.90;;;;;;5984282;23;20022;-88
2022/01/05 01:58:01;;;;;;;8.43;1.73;;;2.80;99.90;;;;;;5984255;23;20096;-89
2022/01/05 02:00:29;;;;;;;7.68;2.30;;;2.80;99.90;;;;;;5985128;23;20006;-89
2022/01/05 02:02:55;;;;;;;16.85;2.65;;;2.70;99.90;;;;;;5984063;23;20049;-88
2022/01/05 02:05:22;;;;;;;12.55;2.30;;;2.70;99.90;;;;;;5977061;24;20049;-88
2022/01/05 02:07:48;;;;;;;11.55;2.88;;;2.70;99.90;;;;;;5959727;23;20057;-91
2022/01/05 02:10:16;;;;;;;9.43;2.25;;;2.70;99.90;;;;;;5964873;23;20021;-90
2022/01/05 02:12:42;;;;;;;11.48;2.50;;;2.60;99.90;;;;;;5972343;23;20068;-88
2022/01/05 02:15:09;;;;;;;12.05;2.75;;;2.60;99.90;;;;;;5975744;23;20021;-88
2022/01/05 02:17:47;;;;;;;10.02;2.42;;;2.60;99.90;;;;;;5971830;23;20136;-88
2022/01/05 02:20:16;;;;;;;15.05;3.10;;;2.50;99.90;;;;;;5963471;23;20521;-91
2022/01/05 02:22:41;;;;;;;14.07;2.38;;;2.50;99.90;;;;;;5979220;23;20376;-90
2022/01/05 02:25:07;;;;;;;16.42;3.08;;;2.50;99.90;;;;;;5979824;23;20024;-90
2022/01/05 02:27:33;;;;;;;12.75;3.30;;;2.50;99.90;;;;;;5984809;23;20349;-90
2022/01/05 02:29:58;;;;;;;10.25;2.70;;;2.50;99.90;;;;;;5956517;24;20456;-91
2022/01/05 02:32:24;;;;;;;11.88;2.83;;;2.60;99.90;;;;;;5963869;23;20009;-89
2022/01/05 02:34:52;;;;;;;11.13;3.80;;;2.60;99.90;;;;;;5981393;23;20022;-90
2022/01/05 02:37:20;;;;;;;12.35;2.75;;;2.60;99.90;;;;;;6001425;23;20058;-91
2022/01/05 02:39:46;;;;;;;10.23;2.22;;;2.60;99.90;;;;;;5969211;24;20083;-91
2022/01/05 02:42:27;;;;;;;10.32;2.90;;;2.60;99.90;;;;;;5980084;23;20018;-90
2022/01/05 02:44:54;;;;;;;14.27;2.28;;;2.60;99.90;;;;;;5971704;23;20022;-89
2022/01/05 02:47:19;;;;;;;8.90;1.83;;;2.60;99.90;;;;;;5983705;23;20037;-88
2022/01/05 02:49:45;;;;;;;10.63;2.50;;;2.60;99.90;;;;;;5970604;23;20018;-89
2022/01/05 02:52:11;;;;;;;12.15;2.53;;;2.60;99.90;;;;;;5965780;23;20010;-89
2022/01/05 02:54:36;;;;;;;8.50;1.90;;;2.60;99.90;;;;;;5978487;23;20483;-89
2022/01/05 02:57:02;;;;;;;9.55;2.25;;;2.60;99.90;;;;;;5963897;23;20018;-90
2022/01/05 02:59:28;;;;;;;12.23;2.15;;;2.50;99.90;;;;;;5963818;24;20089;-89
2022/01/05 03:01:54;;;;;;;8.18;2.15;;;2.60;99.90;;;;;;5980918;23;20475;-89
2022/01/05 03:04:20;;;;;;;13.20;2.78;;;2.50;99.90;;;;;;5965782;23;20022;-90
2022/01/05 03:06:45;;;;;;;9.35;2.30;;;2.60;99.90;;;;;;5963356;24;20092;-89
2022/01/05 03:09:11;;;;;;;8.32;2.08;;;2.60;99.90;;;;;;5983616;23;20036;-90
2022/01/05 03:11:36;;;;;;;10.52;2.22;;;2.60;99.90;;;;;;5977116;23;20375;-90
2022/01/05 03:14:02;;;;;;;9.32;1.98;;;2.60;99.90;;;;;;5984855;23;20021;-88
2022/01/05 03:16:28;;;;;;;12.20;2.60;;;2.60;99.90;;;;;;5984890;23;20020;-88
2022/01/05 03:18:55;;;;;;;13.55;1.80;;;2.60;99.90;;;;;;5985299;23;20010;-89
2022/01/05 03:21:20;;;;;;;9.90;1.77;;;2.60;99.90;;;;;;5977826;23;20017;-89
2022/01/05 03:23:46;;;;;;;9.85;1.70;;;2.70;99.90;;;;;;5985079;23;20148;-88
2022/01/05 03:26:13;;;;;;;9.35;1.60;;;2.70;99.90;;;;;;5985058;23;20013;-90
2022/01/05 03:28:39;;;;;;;15.13;2.67;;;2.70;99.90;;;;;;5985337;23;20021;-89
2022/01/05 03:31:05;;;;;;;14.95;2.78;;;2.70;99.90;;;;;;5985236;23;20010;-89
2022/01/05 03:33:30;;;;;;;12.07;2.28;;;2.70;99.90;;;;;;5985381;23;20028;-90
2022/01/05 03:35:56;;;;;;;10.73;2.15;;;2.60;99.90;;;;;;5985639;23;20009;-88
2022/01/05 03:38:23;;;;;;;9.57;2.17;;;2.60;99.90;;;;;;5984811;23;20024;-89
2022/01/05 03:40:50;;;;;;;16.60;2.83;;;2.60;99.90;;;;;;5985201;23;20491;-89
2022/01/05 03:43:16;;;;;;;13.68;2.30;;;2.70;99.90;;;;;;5985511;23;20010;-91
2022/01/05 03:45:41;;;;;;;12.57;2.35;;;2.70;99.90;;;;;;5985524;23;20041;-89
2022/01/05 03:48:10;;;;;;;11.13;2.55;;;2.70;99.90;;;;;;5985467;23;20040;-89
2022/01/05 03:50:36;;;;;;;8.80;2.05;;;2.60;99.90;;;;;;5986273;23;20010;-89
2022/01/05 03:53:04;;;;;;;13.60;2.15;;;2.70;99.90;;;;;;5986048;23;20013;-88
2022/01/05 03:55:31;;;;;;;9.30;2.05;;;2.70;99.90;;;;;;5985577;23;20036;-89
2022/01/05 03:57:56;;;;;;;10.45;2.25;;;2.70;99.90;;;;;;5987128;23;20040;-90
2022/01/05 04:00:24;;;;;;;11.93;1.92;;;2.70;99.90;;;;;;5986880;23;20018;-89
2022/01/05 04:02:50;;;;;;;11.57;2.30;;;2.60;99.90;;;;;;5997934;23;20010;-89
2022/01/05 04:05:16;;;;;;;13.35;3.30;;;2.70;99.90;;;;;;6003865;23;20041;-88
2022/01/05 04:07:41;;;;;;;13.48;2.90;;;2.70;99.90;;;;;;6005445;23;20041;-88
2022/01/05 04:10:07;;;;;;;9.93;2.58;;;2.70;99.90;;;;;;6006240;23;20013;-86
2022/01/05 04:12:33;;;;;;;12.10;2.28;;;2.70;99.90;;;;;;6006270;23;20009;-88
2022/01/05 04:14:59;;;;;;;8.40;2.15;;;2.70;99.90;;;;;;6008050;23;20069;-88
2022/01/05 04:17:24;;;;;;;16.15;2.65;;;2.70;99.90;;;;;;6011214;23;20074;-88
2022/01/05 04:19:50;;;;;;;10.05;2.28;;;2.70;99.90;;;;;;6012916;23;20002;-88
2022/01/05 04:22:16;;;;;;;8.48;2.15;;;2.70;99.90;;;;;;6013879;23;20013;-92
2022/01/05 04:24:41;;;;;;;11.65;2.30;;;2.60;99.90;;;;;;6013668;23;20034;-90
2022/01/05 04:27:07;;;;;;;10.73;1.83;;;2.60;99.90;;;;;;6013774;23;20002;-91
2022/01/05 04:29:33;;;;;;;14.65;2.30;;;2.60;99.90;;;;;;6013670;23;20006;-90
2022/01/05 04:32:00;;;;;;;16.60;3.20;;;2.60;99.90;;;;;;6011808;23;20026;-89
2022/01/05 04:34:26;;;;;;;11.00;2.28;;;2.60;99.90;;;;;;6012314;23;20010;-89
2022/01/05 04:36:52;;;;;;;14.02;1.98;;;2.60;99.90;;;;;;6009244;23;20076;-90
2022/01/05 04:39:17;;;;;;;10.68;2.20;;;2.60;99.90;;;;;;6012064;23;20037;-90
2022/01/05 04:41:43;;;;;;;9.50;1.75;;;2.50;99.90;;;;;;6007875;23;20010;-89
2022/01/05 04:44:09;;;;;;;12.90;1.58;;;2.60;99.90;;;;;;5997636;23;20009;-89
2022/01/05 04:46:35;;;;;;;15.77;3.72;;;2.50;99.90;;;;;;5994673;23;20010;-88
2022/01/05 04:49:00;;;;;;;14.43;2.95;;;2.60;99.90;;;;;;6001785;23;20021;-90
2022/01/05 04:51:26;;;;;;;13.80;3.53;;;2.60;99.90;;;;;;5994782;23;20423;-87
2022/01/05 04:53:52;;;;;;;11.40;1.95;;;2.70;99.90;;;;;;5984856;24;20106;-89
2022/01/05 04:56:18;;;;;;;14.48;2.63;;;2.70;99.90;;;;;;5987379;24;20006;-89
2022/01/05 04:58:44;;;;;;;19.23;3.22;;;2.80;99.90;;;;;;5982970;24;20014;-89
2022/01/05 05:01:09;;;;;;;17.08;1.88;;;2.80;99.90;;;;;;5982305;24;20016;-88
2022/01/05 05:03:35;;;;;;;12.95;2.20;;;2.90;99.90;;;;;;5983315;24;20030;-89
2022/01/05 05:06:00;;;;;;;14.65;2.65;;;2.90;99.90;;;;;;5983056;24;20018;-89
2022/01/05 05:08:26;;;;;;;11.60;2.22;;;2.90;99.90;;;;;;5982586;24;20014;-89
2022/01/05 05:10:52;;;;;;;14.18;2.60;;;2.90;99.90;;;;;;5982740;24;20006;-88
2022/01/05 05:13:17;;;;;;;15.10;2.50;;;2.90;99.90;;;;;;5983796;24;20029;-89
2022/01/05 05:15:43;;;;;;;13.70;2.65;;;3.00;99.90;;;;;;5982195;24;20038;-89
2022/01/05 05:18:09;;;;;;;14.98;2.72;;;3.00;99.90;;;;;;5983231;24;20058;-89
2022/01/05 05:20:34;;;;;;;10.43;2.20;;;3.10;99.90;;;;;;5982477;24;20003;-88
2022/01/05 05:23:00;;;;;;;12.57;2.72;;;3.10;99.90;;;;;;5981896;24;20361;-90
2022/01/05 05:25:26;;;;;;;22.08;2.70;;;3.10;99.90;;;;;;5981814;24;20032;-89
2022/01/05 05:27:52;;;;;;;15.80;3.30;;;3.20;99.90;;;;;;5981715;24;20015;-88
2022/01/05 05:30:18;;;;;;;10.15;3.03;;;3.20;99.90;;;;;;5980647;24;20025;-89
2022/01/05 05:32:44;;;;;;;17.60;3.95;;;3.20;99.90;;;;;;5981468;24;20563;-90
2022/01/05 05:35:10;;;;;;;11.95;2.25;;;3.20;99.90;;;;;;5985251;24;20022;-91
2022/01/05 05:37:36;;;;;;;14.50;2.50;;;3.20;99.90;;;;;;5986157;24;20061;-92
2022/01/05 05:40:03;;;;;;;16.45;2.78;;;3.10;99.90;;;;;;5987837;24;20052;-93
2022/01/05 05:42:31;;;;;;;13.38;2.58;;;3.10;99.90;;;;;;5986579;24;20049;-92
2022/01/05 05:44:57;;;;;;;15.70;3.13;;;3.10;99.90;;;;;;5979618;24;20026;-92
2022/01/05 05:47:23;;;;;;;14.50;3.10;;;3.10;99.90;;;;;;5981487;24;20032;-91
2022/01/05 05:49:49;;;;;;;16.05;3.13;;;3.20;99.90;;;;;;5981823;24;20349;-93
2022/01/05 05:52:15;;;;;;;15.60;2.50;;;3.20;99.90;;;;;;5979984;24;20531;-92
2022/01/05 05:54:41;;;;;;;15.68;2.70;;;3.20;99.90;;;;;;5966744;24;20026;-94
2022/01/05 05:57:08;;;;;;;12.60;2.40;;;3.20;99.90;;;;;;5978097;24;20010;-95
2022/01/05 05:59:35;;;;;;;15.05;3.20;;;3.20;99.90;;;;;;5951616;24;20449;-93
2022/01/05 06:02:01;;;;;;;12.38;2.50;;;3.30;99.90;;;;;;5953146;24;20018;-95
2022/01/05 06:04:26;;;;;;;15.68;3.65;;;3.30;99.90;;;;;;5954901;24;20030;-94
2022/01/05 06:07:34;;;;;;;26.85;5.35;;;3.40;99.90;;;;;;5935863;24;20038;-93
2022/01/05 06:10:00;;;;;;;14.43;4.70;;;3.50;99.90;;;;;;5951934;24;20014;-93
2022/01/05 06:12:26;;;;;;;9.80;2.15;;;3.50;99.90;;;;;;5951571;24;20074;-93
2022/01/05 06:14:52;;;;;;;15.43;2.53;;;3.60;99.90;;;;;;5952537;24;20085;-93
2022/01/05 06:17:18;;;;;;;15.43;2.70;;;3.60;99.90;;;;;;5952686;24;20799;-93
2022/01/05 06:19:44;;;;;;;18.00;3.22;;;3.60;99.90;;;;;;5953707;24;20472;-95
2022/01/05 06:22:10;;;;;;;20.80;3.70;;;3.70;99.90;;;;;;5955064;24;20547;-95
2022/01/05 06:24:39;;;;;;;18.58;3.22;;;3.80;99.90;;;;;;5954199;24;20022;-94
2022/01/05 06:27:10;;;;;;;12.80;3.08;;;3.90;99.90;;;;;;5955499;24;20081;-94
2022/01/05 06:29:37;;;;;;;16.80;3.47;;;3.90;99.90;;;;;;5984015;24;20078;-94
2022/01/05 06:32:03;;;;;;;21.98;4.93;;;3.90;99.90;;;;;;5980550;24;20019;-93
2022/01/05 06:34:29;;;;;;;12.23;3.30;;;4.00;99.90;;;;;;5979633;24;20022;-91
2022/01/05 06:37:03;;;;;;;17.88;2.78;;;4.00;99.90;;;;;;5962793;24;20014;-90
2022/01/05 06:39:29;;;;;;;14.43;3.60;;;4.00;99.90;;;;;;5957910;24;20026;-92
2022/01/05 06:41:56;;;;;;;20.92;3.00;;;4.00;99.90;;;;;;5952438;24;20045;-91
2022/01/05 06:44:21;;;;;;;15.23;2.67;;;3.90;99.90;;;;;;5952399;24;20106;-93
2022/01/05 06:46:47;;;;;;;13.45;3.03;;;3.90;99.90;;;;;;5952507;24;20046;-91
2022/01/05 06:49:15;;;;;;;17.65;3.33;;;4.00;99.90;;;;;;5963784;24;20418;-92
2022/01/05 06:51:41;;;;;;;17.95;4.25;;;4.00;99.90;;;;;;5958258;24;20022;-93
2022/01/05 06:54:06;;;;;;;15.82;2.97;;;4.10;99.90;;;;;;5951467;24;20026;-93
2022/01/05 06:56:33;;;;;;;15.50;3.55;;;4.00;99.90;;;;;;5968665;24;20419;-93
2022/01/05 06:58:58;;;;;;;14.00;2.38;;;4.10;99.90;;;;;;5969437;24;20453;-91
2022/01/05 07:01:24;;;;;;;12.43;2.83;;;4.10;99.90;;;;;;5952022;24;20014;-91
2022/01/05 07:03:49;;;;;;;18.40;3.25;;;4.10;99.90;;;;;;5952058;24;20492;-93
2022/01/05 07:06:15;;;;;;;14.18;2.53;;;4.20;99.90;;;;;;5954415;24;20019;-91
2022/01/05 07:08:41;;;;;;;15.77;3.05;;;4.20;99.90;;;;;;5951947;24;20011;-92
2022/01/05 07:11:06;;;;;;;15.20;3.95;;;4.10;99.90;;;;;;5953021;24;20010;-91
2022/01/05 07:13:34;;;;;;;15.10;3.03;;;4.10;99.90;;;;;;5951944;24;20017;-91
2022/01/05 07:16:00;;;;;;;14.38;2.83;;;4.10;99.90;;;;;;5953285;24;20026;-92
2022/01/05 07:18:43;;;;;;;18.27;3.55;;;4.00;99.90;;;;;;5952545;24;20018;-93
2022/01/05 07:21:09;;;;;;;15.38;3.10;;;4.10;99.90;;;;;;5952940;24;20022;-91
2022/01/05 07:23:34;;;;;;;19.63;3.40;;;4.20;99.90;;;;;;5957748;24;20017;-91
2022/01/05 07:26:00;;;;;;;13.35;3.13;;;4.20;99.90;;;;;;5952039;24;20010;-92
2022/01/05 07:28:26;;;;;;;17.13;2.80;;;4.20;99.90;;;;;;5951802;24;20014;-91
2022/01/05 07:30:52;;;;;;;22.25;3.03;;;4.30;99.90;;;;;;5953332;24;20014;-91
2022/01/05 07:33:18;;;;;;;12.50;2.28;;;4.30;99.90;;;;;;5952515;24;20018;-91
2022/01/05 07:35:45;;;;;;;15.93;3.53;;;4.40;99.90;;;;;;5952342;24;20014;-93
2022/01/05 07:38:10;;;;;;;21.83;3.50;;;4.40;99.90;;;;;;5951133;24;20073;-90
2022/01/05 07:40:36;;;;;;;15.23;2.95;;;4.50;99.90;;;;;;5951540;24;20015;-91
2022/01/05 07:44:09;;;;;;;19.27;3.22;;;4.50;99.90;;;;;;5952667;24;20046;-90
2022/01/05 07:47:09;;;;;;;15.43;2.80;;;4.50;99.90;;;;;;5893981;24;20036;-91
2022/01/05 07:49:34;;;;;;;16.88;2.75;;;4.50;99.90;;;;;;5956084;24;20065;-91
2022/01/05 07:52:00;;;;;;;15.80;3.10;;;4.60;99.90;;;;;;5953915;24;20050;-92
2022/01/05 07:54:26;;;;;;;16.48;3.67;;;4.60;99.90;;;;;;5957348;24;20564;-92
2022/01/05 07:56:51;;;;;;;15.75;2.70;;;4.60;99.90;;;;;;5955611;24;20018;-92
2022/01/05 07:59:17;;;;;;;17.02;2.78;;;4.60;99.90;;;;;;5962466;24;20073;-91
2022/01/05 08:01:43;;;;;;;15.10;3.85;;;4.60;99.90;;;;;;5958896;24;20014;-91
2022/01/05 08:04:08;;;;;;;18.70;3.83;;;4.60;99.90;;;;;;5957899;24;20030;-93
2022/01/05 08:06:34;;;;;;;17.92;3.22;;;4.70;99.90;;;;;;5985289;24;20017;-94
2022/01/05 08:09:00;;;;;;;13.25;2.30;;;4.70;99.90;;;;;;5984147;24;20018;-91
2022/01/05 08:11:26;;;;;;;15.68;2.90;;;4.70;99.90;;;;;;5985883;24;20376;-91
2022/01/05 08:13:52;;;;;;;19.45;3.20;;;4.70;99.90;;;;;;5985441;24;20013;-93
2022/01/05 08:16:22;;;;;;;20.05;3.53;;;4.70;99.90;;;;;;5954477;24;20014;-92
2022/01/05 08:18:49;;;;;;;13.75;3.00;;;4.60;99.90;;;;;;5959039;24;20018;-88
2022/01/05 08:21:16;;;;;;;12.10;2.95;;;4.50;99.90;;;;;;5977474;24;20022;-90
2022/01/05 08:23:42;;;;;;;15.68;3.58;;;4.50;99.90;;;;;;5970048;24;20078;-92
2022/01/05 08:26:08;;;;;;;16.52;3.60;;;4.40;99.90;;;;;;5967614;24;20436;-93
2022/01/05 08:28:35;;;;;;;16.95;3.30;;;4.20;99.90;;;;;;5991877;24;20010;-93
2022/01/05 08:31:00;;;;;;;18.83;3.10;;;4.20;99.90;;;;;;5967032;24;20011;-89
2022/01/05 08:33:26;;;;;;;18.10;3.65;;;4.30;99.90;;;;;;5965421;24;20106;-90
2022/01/05 08:35:52;;;;;;;13.93;3.53;;;4.20;99.90;;;;;;5966946;24;20042;-88
2022/01/05 08:38:17;;;;;;;17.77;2.97;;;4.20;99.90;;;;;;5956633;24;20015;-89
2022/01/05 08:40:43;;;;;;;12.90;2.60;;;4.20;99.90;;;;;;5977741;24;20017;-89
2022/01/05 08:43:10;;;;;;;17.52;3.47;;;4.20;99.90;;;;;;5960433;24;20046;-88
2022/01/05 08:45:36;;;;;;;15.32;3.63;;;4.10;99.90;;;;;;5973988;24;20010;-90
2022/01/05 08:48:03;;;;;;;13.65;3.78;;;4.10;99.90;;;;;;5979261;24;20006;-90
2022/01/05 08:50:30;;;;;;;18.15;3.40;;;4.10;99.90;;;;;;5962106;24;20011;-90
2022/01/05 08:52:57;;;;;;;20.02;4.05;;;4.10;99.90;;;;;;5957063;24;20007;-89
2022/01/05 08:55:27;;;;;;;13.60;2.65;;;4.10;99.90;;;;;;5951879;24;20030;-90
2022/01/05 08:57:53;;;;;;;18.67;3.47;;;4.10;99.90;;;;;;5947338;24;20021;-90
2022/01/05 09:00:19;;;;;;;18.65;3.83;;;4.10;99.90;;;;;;5936010;24;20450;-92
2022/01/05 09:02:45;;;;;;;21.23;3.50;;;4.10;99.90;;;;;;5945382;24;20050;-89
2022/01/05 09:05:11;;;;;;;26.27;4.40;;;4.10;99.90;;;;;;5957162;24;20409;-89
2022/01/05 09:07:37;;;;;;;19.65;3.42;;;4.10;99.90;;;;;;5958395;24;20402;-89
2022/01/05 09:10:04;;;;;;;20.42;3.47;;;4.00;99.90;;;;;;5938835;24;20019;-89
2022/01/05 09:12:31;;;;;;;20.80;3.30;;;4.00;99.90;;;;;;5925844;24;20462;-91
2022/01/05 09:14:57;;;;;;;22.35;4.35;;;4.00;99.90;;;;;;5925358;24;20008;-93
2022/01/05 09:17:24;;;;;;;20.95;3.72;;;4.00;99.90;;;;;;5942715;24;20015;-88
2022/01/05 09:19:51;;;;;;;22.83;3.63;;;4.00;99.90;;;;;;5951295;24;20018;-88
2022/01/05 09:22:16;;;;;;;17.73;3.58;;;4.00;99.90;;;;;;5924985;24;20454;-89
2022/01/05 09:24:42;;;;;;;15.60;4.22;;;4.00;99.90;;;;;;5926096;24;20057;-89
2022/01/05 09:27:08;;;;;;;22.02;4.85;;;4.00;99.90;;;;;;5956042;24;20018;-92
2022/01/05 09:29:34;;;;;;;20.58;4.40;;;4.00;99.90;;;;;;5963244;24;20015;-89
2022/01/05 09:32:05;;;;;;;18.63;4.32;;;4.10;99.90;;;;;;5937967;24;20007;-87
2022/01/05 09:34:31;;;;;;;18.52;4.00;;;4.10;99.90;;;;;;5941117;24;20057;-88
2022/01/05 09:37:02;;;;;;;20.40;4.22;;;4.10;99.90;;;;;;5928263;24;20186;-89
2022/01/05 09:42:13;;;;;;;18.95;3.72;;;4.10;99.90;;;;;;5955346;24;20025;-88
2022/01/05 09:44:44;;;;;;;19.40;3.47;;;4.10;99.90;;;;;;5953335;24;20034;-87
2022/01/05 09:47:25;;;;;;;14.60;3.45;;;4.20;99.90;;;;;;5945130;24;20015;-85
2022/01/05 09:50:10;;;;;;;20.73;3.58;;;4.20;99.90;;;;;;5948727;24;20014;-89
2022/01/05 09:52:39;;;;;;;21.85;4.55;;;4.20;99.90;;;;;;5954293;24;20034;-88
2022/01/05 09:55:07;;;;;;;19.33;4.55;;;4.20;99.90;;;;;;5994634;23;20100;-89
2022/01/05 09:57:34;;;;;;;26.50;4.68;;;4.30;99.90;;;;;;5985092;23;20664;-90
2022/01/05 10:00:00;;;;;;;19.33;3.10;;;4.30;99.90;;;;;;5972666;24;20014;-90
2022/01/05 10:02:26;;;;;;;16.05;3.80;;;4.20;99.90;;;;;;5979565;24;20105;-88
2022/01/05 10:04:52;;;;;;;22.20;3.70;;;4.30;99.90;;;;;;5957306;23;20018;-89
2022/01/05 10:07:18;;;;;;;22.60;3.97;;;4.30;99.90;;;;;;5966700;24;20068;-90
2022/01/05 10:09:45;;;;;;;21.00;3.92;;;4.20;99.90;;;;;;5963723;23;20423;-89
2022/01/05 10:12:13;;;;;;;18.55;3.58;;;4.30;99.90;;;;;;5968439;24;20364;-90
2022/01/05 10:14:45;;;;;;;18.38;3.25;;;4.30;99.90;;;;;;5968139;24;20105;-91
2022/01/05 10:17:13;;;;;;;29.67;4.70;;;4.40;99.90;;;;;;5969338;24;20089;-89
2022/01/05 10:19:40;;;;;;;23.83;4.00;;;4.40;99.90;;;;;;5957618;23;20014;-91
2022/01/05 10:22:46;;;;;;;18.25;3.75;;;4.40;99.90;;;;;;5963230;23;20021;-91
2022/01/05 10:25:23;;;;;;;30.48;5.30;;;4.40;99.90;;;;;;5957308;24;20025;-88
2022/01/05 10:28:03;;;;;;;21.23;4.78;;;4.50;99.90;;;;;;5969902;23;20064;-88
2022/01/05 10:30:40;;;;;;;26.20;5.25;;;4.50;99.90;;;;;;5979241;24;20014;-88
2022/01/05 10:33:07;;;;;;;26.15;5.88;;;4.60;99.90;;;;;;5972521;23;20009;-90
2022/01/05 10:35:34;;;;;;;27.98;4.90;;;4.60;99.90;;;;;;5974147;24;20010;-90
2022/01/05 10:38:07;;;;;;;24.85;4.20;;;4.60;99.90;;;;;;5979678;23;20036;-89
2022/01/05 10:40:34;;;;;;;;;;;4.70;99.90;;;;;;5967850;24;20006;-91
2022/01/05 10:43:20;;;;;;;17.20;3.80;;;4.70;99.90;;;;;;5960226;24;19901;-94
2022/01/05 10:45:48;;;;;;;19.33;4.65;;;4.90;99.90;;;;;;5985801;23;20021;-92
2022/01/05 10:48:16;;;;;;;17.77;3.80;;;4.90;99.90;;;;;;5976272;23;20021;-90
2022/01/05 10:50:43;;;;;;;19.00;4.30;;;4.90;99.90;;;;;;5959794;24;20357;-90
2022/01/05 10:53:20;;;;;;;24.65;3.80;;;4.90;99.90;;;;;;5957403;24;20006;-91
2022/01/05 10:55:48;;;;;;;27.08;4.07;;;4.90;99.90;;;;;;5958683;24;20073;-90
2022/01/05 10:58:16;;;;;;;21.92;4.50;;;4.90;99.90;;;;;;5951758;24;20026;-92
2022/01/05 11:00:55;;;;;;;34.47;5.47;;;5.00;99.90;;;;;;5964187;23;20030;-91
2022/01/05 11:03:25;;;;;;;25.95;4.40;;;5.10;99.90;;;;;;5976488;23;20023;-91
2022/01/05 11:06:04;;;;;;;40.00;6.53;;;5.10;99.90;;;;;;5965356;24;20018;-92
2022/01/05 11:08:46;;;;;;;24.35;4.50;;;5.30;99.90;;;;;;5957350;24;20010;-93
2022/01/05 11:11:37;;;;;;;21.90;3.97;;;5.30;99.90;;;;;;5956341;24;20346;-91
2022/01/05 11:14:05;;;;;;;28.70;4.60;;;5.40;99.90;;;;;;5977681;24;20018;-92
2022/01/05 11:16:32;;;;;;;30.60;4.47;;;5.30;99.90;;;;;;5956630;24;20010;-92
2022/01/05 11:19:18;;;;;;;26.25;4.22;;;5.30;99.90;;;;;;5997245;23;20065;-92
2022/01/05 11:22:16;;;;;;;20.80;3.00;;;5.20;99.90;;;;;;5960619;24;20100;-93
2022/01/05 11:24:48;;;;;;;25.75;4.82;;;5.20;99.90;;;;;;5993020;24;20029;-91
2022/01/05 11:27:26;;;;;;;21.20;4.22;;;5.20;99.90;;;;;;5964400;24;20018;-95
2022/01/05 11:29:52;;;;;;;17.73;3.58;;;5.20;99.90;;;;;;5184248;23;20106;-90
2022/01/05 11:32:23;;;;;;;18.58;3.95;;;5.20;99.90;;;;;;4957641;29;20055;-90
2022/01/05 11:34:53;;;;;;;25.08;5.13;;;5.20;99.90;;;;;;4973936;28;20027;-90
2022/01/05 11:37:22;;;;;;;19.33;3.38;;;5.20;99.90;;;;;;4957701;29;20027;-90
2022/01/05 11:39:53;;;;;;;16.92;3.63;;;5.20;99.90;;;;;;4957865;28;20078;-90
2022/01/05 11:42:33;;;;;;;28.33;5.50;;;5.20;99.90;;;;;;4956240;29;20082;-91
2022/01/05 11:44:59;;;;;;;14.25;3.00;;;5.20;99.90;;;;;;4959191;28;20043;-90
2022/01/05 11:47:50;;;;;;;17.48;3.70;;;5.20;99.90;;;;;;4959075;29;20051;-91
2022/01/05 11:50:26;;;;;;;18.20;3.08;;;5.20;99.90;;;;;;4948947;29;20106;-91
2022/01/05 11:52:59;;;;;;;24.92;3.53;;;5.20;99.90;;;;;;4955678;29;20023;-92
2022/01/05 11:55:27;;;;;;;18.70;3.67;;;5.20;99.90;;;;;;4964031;28;20039;-91
2022/01/05 11:58:26;;;;;;;17.50;3.03;;;5.20;99.90;;;;;;4984867;28;20028;-93
2022/01/05 12:01:22;;;;;;;11.65;2.00;;;5.30;99.90;;;;;;4931083;28;20051;-92
2022/01/05 12:03:52;;;;;;;11.55;1.70;;;5.30;99.90;;;;;;4950135;29;20050;-91
2022/01/05 12:06:21;;;;;;;12.80;1.88;;;5.20;99.90;;;;;;4969152;28;20039;-92
2022/01/05 12:08:49;;;;;;;9.75;2.63;;;5.30;99.90;;;;;;4958008;29;20023;-92
2022/01/05 12:11:38;;;;;;;21.58;3.08;;;5.30;99.90;;;;;;4954666;29;20031;-94
2022/01/05 12:14:09;;;;;;;15.27;2.50;;;5.40;99.90;;;;;;4956204;28;20035;-92
2022/01/05 12:17:01;;;;;;;16.83;3.53;;;5.50;99.90;;;;;;4937883;29;20472;-89
2022/01/05 12:19:32;;;;;;;19.35;3.13;;;5.60;99.90;;;;;;4937960;29;20028;-90
2022/01/05 12:22:14;;;;;;;16.52;2.85;;;5.60;99.90;;;;;;4956489;29;20046;-91
2022/01/05 12:25:00;;;;;;;19.40;3.30;;;5.60;99.90;;;;;;4948398;29;20146;-92
2022/01/05 12:27:33;;;;;;;19.65;3.00;;;5.60;99.90;;;;;;4958837;28;20058;-93
2022/01/05 12:30:20;;;;;;;20.05;3.22;;;5.60;99.90;;;;;;4955835;29;20052;-90
2022/01/05 12:32:48;;;;;;;22.55;3.15;;;5.60;99.90;;;;;;4935283;28;20032;-91
2022/01/05 12:35:20;;;;;;;28.08;5.28;;;5.60;99.90;;;;;;4952839;28;20770;-91
2022/01/05 12:38:06;;;;;;;21.45;3.60;;;5.60;99.90;;;;;;4965802;28;20024;-92
2022/01/05 12:40:46;;;;;;;21.42;3.35;;;5.70;99.90;;;;;;4951062;29;20030;-92
2022/01/05 12:43:17;;;;;;;23.95;4.05;;;5.60;99.90;;;;;;4939940;29;20480;-93
2022/01/05 12:46:06;;;;;;;22.63;3.20;;;5.70;99.90;;;;;;4967772;28;20060;-92
2022/01/05 12:48:32;;;;;;;28.80;4.10;;;5.70;99.90;;;;;;4957604;29;20023;-93
2022/01/05 12:51:31;;;;;;;22.98;4.18;;;5.70;99.90;;;;;;4960054;28;20059;-92
2022/01/05 12:54:01;;;;;;;20.45;3.53;;;5.70;99.90;;;;;;4945577;29;20113;-91
2022/01/05 12:56:40;;;;;;;25.83;4.38;;;5.80;99.90;;;;;;4951374;28;20027;-91
2022/01/05 12:59:10;;;;;;;25.13;3.45;;;5.80;99.90;;;;;;4955797;28;20032;-90